Time;durP1;ratioP1;P1;durP2;ratioP2;P2;SDS_P1;SDS_P2;PMS_P1;PMS_P2;Temp;Humidity;BMP_temperature;BMP_pressure;BME280_temperature;BME280_humidity;BME280_pressure;Samples;Min_cycle;Max_cycle;Signal;HPM_P1;HPM_P2
2023/04/17 00:01:02;;;;;;;1.70;0.55;;;;;;;12.95;56.02;101075.75;5045823;28;20132;-84
2023/04/17 00:03:33;;;;;;;0.38;0.30;;;;;;;12.90;57.46;101066.97;5047819;28;20128;-80
2023/04/17 00:06:02;;;;;;;1.95;0.60;;;;;;;12.92;54.72;101086.09;5047382;28;20096;-82
2023/04/17 00:08:31;;;;;;;1.55;0.40;;;;;;;12.96;57.76;101090.50;5050528;28;20110;-83
2023/04/17 00:11:00;;;;;;;2.47;0.40;;;;;;;12.96;55.66;101085.28;5037748;28;20120;-80
2023/04/17 00:13:32;;;;;;;0.65;0.30;;;;;;;12.96;53.99;101087.91;5045231;28;20052;-83
2023/04/17 00:16:03;;;;;;;1.47;0.40;;;;;;;13.00;54.15;101082.81;5036478;28;20048;-78
2023/04/17 00:21:55;;;;;;;0.95;0.40;;;;;;;13.04;55.58;101093.31;5044212;28;20051;-78
2023/04/17 00:24:24;;;;;;;1.10;0.30;;;;;;;13.01;53.82;101091.50;5042551;28;20055;-76
2023/04/17 00:26:56;;;;;;;0.75;0.32;;;;;;;12.97;52.15;101092.25;5041932;28;20049;-76
2023/04/17 00:29:36;;;;;;;2.63;0.20;;;;;;;12.96;53.34;101103.47;5047111;28;20924;-76
2023/04/17 00:32:05;;;;;;;1.45;0.73;;;;;;;12.82;52.48;101099.66;5042342;28;20147;-76
2023/04/17 00:34:52;;;;;;;1.60;0.35;;;;;;;12.70;52.14;101100.22;5044069;28;20636;-75
2023/04/17 00:37:32;;;;;;;6.00;0.70;;;;;;;12.67;50.96;101103.63;5038525;28;20049;-76
2023/04/17 00:40:15;;;;;;;1.00;0.30;;;;;;;12.56;50.59;101105.03;5035758;28;20049;-77
2023/04/17 00:42:51;;;;;;;5.47;0.75;;;;;;;12.52;49.80;101092.81;5047151;28;20527;-76
2023/04/17 00:45:21;;;;;;;1.25;0.55;;;;;;;12.45;51.07;101098.69;5041992;28;20053;-76
2023/04/17 00:47:50;;;;;;;3.05;0.50;;;;;;;12.33;50.11;101105.28;5046459;28;20060;-75
2023/04/17 00:50:19;;;;;;;3.17;0.50;;;;;;;12.14;49.16;101103.91;5044774;28;20390;-76
2023/04/17 00:52:51;;;;;;;4.80;0.65;;;;;;;11.99;51.59;101108.63;5046843;28;20128;-76
2023/04/17 00:55:21;;;;;;;1.48;0.52;;;;;;;11.81;50.71;101126.22;5047178;28;20054;-76
2023/04/17 00:57:51;;;;;;;1.27;0.52;;;;;;;11.70;54.20;101125.88;5050586;28;20140;-75
2023/04/17 01:00:20;;;;;;;2.97;0.80;;;;;;;11.59;60.18;101130.75;5050299;28;20470;-75
2023/04/17 01:02:48;;;;;;;2.45;0.80;;;;;;;11.52;63.99;101145.22;5047137;28;20406;-77
2023/04/17 01:05:17;;;;;;;2.10;0.40;;;;;;;11.46;64.34;101146.72;5041135;28;20061;-75
2023/04/17 01:07:47;;;;;;;3.13;0.73;;;;;;;11.37;63.57;101149.03;5043752;28;20048;-75
2023/04/17 01:10:17;;;;;;;0.40;0.30;;;;;;;11.29;67.51;101157.44;5045442;28;20049;-77
2023/04/17 01:12:48;;;;;;;5.53;0.63;;;;;;;11.25;68.19;101157.28;5036375;28;20049;-76
2023/04/17 01:15:16;;;;;;;4.55;0.85;;;;;;;11.27;59.77;101165.94;5045757;28;20056;-76
2023/04/17 01:17:45;;;;;;;6.00;1.65;;;;;;;11.22;54.53;101164.94;5047339;28;20085;-77
2023/04/17 01:20:14;;;;;;;6.22;2.25;;;;;;;11.17;54.01;101164.78;5038807;28;20135;-75
2023/04/17 01:22:42;;;;;;;8.27;3.28;;;;;;;11.14;51.82;101163.81;5047776;28;20045;-77
2023/04/17 01:25:13;;;;;;;13.23;6.28;;;;;;;11.14;53.84;101156.91;5042100;28;20541;-74
2023/04/17 01:27:42;;;;;;;11.85;4.93;;;;;;;11.15;54.65;101150.88;5042741;28;20145;-75
2023/04/17 01:30:11;;;;;;;6.40;2.83;;;;;;;11.10;52.08;101150.75;5045038;28;20048;-74
2023/04/17 01:32:40;;;;;;;3.70;1.40;;;;;;;11.08;53.57;101154.97;5048611;28;20765;-74
2023/04/17 01:35:09;;;;;;;2.30;0.85;;;;;;;11.09;52.55;101156.75;5043981;28;20049;-75
2023/04/17 01:37:38;;;;;;;7.07;3.40;;;;;;;11.10;54.61;101158.50;5040043;28;20143;-75
2023/04/17 01:40:08;;;;;;;2.78;1.17;;;;;;;11.07;53.29;101158.41;5041947;28;20108;-73
2023/04/17 01:42:39;;;;;;;10.05;2.00;;;;;;;11.03;53.14;101153.94;5044676;28;20526;-74
2023/04/17 01:45:09;;;;;;;3.90;0.80;;;;;;;11.01;52.27;101150.44;5040978;28;20053;-74
2023/04/17 01:47:38;;;;;;;12.35;4.30;;;;;;;10.96;53.65;101159.75;5035976;28;20053;-74
2023/04/17 01:50:08;;;;;;;7.97;1.17;;;;;;;10.94;52.08;101153.63;5041357;28;20049;-75
2023/04/17 01:52:38;;;;;;;2.72;0.85;;;;;;;10.86;51.44;101155.97;5038912;28;20124;-73
2023/04/17 01:55:07;;;;;;;3.65;0.45;;;;;;;10.84;51.68;101157.63;5041615;28;20048;-74
2023/04/17 01:57:38;;;;;;;6.72;1.00;;;;;;;10.82;51.08;101158.41;5040114;28;20502;-77
2023/04/17 02:00:09;;;;;;;5.38;0.82;;;;;;;10.78;52.53;101153.94;5038674;28;20118;-82
2023/04/17 02:02:38;;;;;;;4.30;0.70;;;;;;;10.77;53.09;101154.78;5044652;28;20044;-80
2023/04/17 02:05:07;;;;;;;1.05;0.55;;;;;;;10.71;53.07;101157.16;5043602;28;20064;-78
2023/04/17 02:07:36;;;;;;;6.10;0.65;;;;;;;10.63;54.88;101157.75;5042355;28;20072;-79
2023/04/17 02:10:05;;;;;;;3.05;0.68;;;;;;;10.60;57.02;101170.56;5043283;28;20040;-80
2023/04/17 02:12:34;;;;;;;6.03;0.82;;;;;;;10.57;57.56;101159.25;5049050;28;20056;-80
2023/04/17 02:15:05;;;;;;;3.42;0.70;;;;;;;10.55;55.53;101168.66;5043901;28;20044;-80
2023/04/17 02:17:34;;;;;;;2.60;0.40;;;;;;;10.45;55.84;101168.31;5042001;28;20045;-80
2023/04/17 02:20:05;;;;;;;0.98;0.38;;;;;;;10.39;56.35;101167.22;5042273;28;20049;-79
2023/04/17 02:22:34;;;;;;;4.43;0.70;;;;;;;10.33;55.16;101173.06;5062089;28;20081;-77
2023/04/17 02:25:03;;;;;;;1.98;0.20;;;;;;;10.27;55.61;101168.47;5055001;28;20041;-78
2023/04/17 02:27:32;;;;;;;6.18;1.17;;;;;;;10.23;56.57;101174.34;5044172;28;20057;-77
2023/04/17 02:30:01;;;;;;;3.65;0.73;;;;;;;10.14;56.86;101168.84;5041085;28;20053;-77
2023/04/17 02:32:32;;;;;;;3.70;0.98;;;;;;;10.16;56.61;101180.13;5039130;28;20053;-76
2023/04/17 02:35:01;;;;;;;9.18;1.20;;;;;;;10.12;58.04;101183.41;5039942;28;20386;-78
2023/04/17 02:37:30;;;;;;;0.88;0.50;;;;;;;10.08;56.96;101181.56;5043951;28;20600;-76
2023/04/17 02:39:59;;;;;;;3.83;0.93;;;;;;;10.00;57.63;101183.81;5043495;28;20099;-78
2023/04/17 02:42:27;;;;;;;2.38;0.93;;;;;;;9.96;57.79;101184.53;5037983;28;20045;-80
2023/04/17 02:44:56;;;;;;;5.28;0.90;;;;;;;9.93;58.05;101186.13;5041564;28;20045;-79
2023/04/17 02:47:25;;;;;;;3.47;0.73;;;;;;;9.88;57.49;101187.66;5044675;28;20048;-79
2023/04/17 02:49:55;;;;;;;1.80;0.68;;;;;;;9.80;58.09;101190.81;5041751;28;20045;-79
2023/04/17 02:52:24;;;;;;;3.97;0.88;;;;;;;9.75;58.98;101200.06;5045511;28;20053;-80
2023/04/17 02:54:53;;;;;;;6.00;0.75;;;;;;;9.70;59.70;101201.59;5047014;28;20096;-81
2023/04/17 02:57:22;;;;;;;6.05;0.50;;;;;;;9.68;59.55;101202.38;5047747;28;20048;-79
2023/04/17 02:59:50;;;;;;;4.82;0.50;;;;;;;9.58;59.45;101190.78;5044110;28;20129;-79
2023/04/17 03:02:21;;;;;;;2.95;0.80;;;;;;;9.62;59.92;101205.56;5041495;28;20044;-78
2023/04/17 03:04:49;;;;;;;1.98;0.60;;;;;;;9.56;59.80;101202.75;5039559;28;20067;-78
2023/04/17 03:07:22;;;;;;;3.25;0.95;;;;;;;9.53;61.18;101206.09;5047870;28;20759;-79
2023/04/17 03:09:52;;;;;;;4.65;1.08;;;;;;;9.51;61.80;101205.16;5044720;28;20148;-79
2023/04/17 03:12:21;;;;;;;5.05;1.00;;;;;;;9.48;60.85;101202.41;5043253;28;20056;-80
2023/04/17 03:14:49;;;;;;;2.67;0.60;;;;;;;9.42;60.77;101197.91;5043366;28;20087;-80
2023/04/17 03:17:19;;;;;;;3.55;1.13;;;;;;;9.39;61.74;101191.72;5063341;28;20529;-78
2023/04/17 03:19:47;;;;;;;4.13;1.05;;;;;;;9.36;62.36;101189.88;5066484;28;20087;-78
2023/04/17 03:22:16;;;;;;;2.92;0.85;;;;;;;9.31;62.22;101193.13;5059500;28;20109;-79
2023/04/17 03:24:46;;;;;;;2.75;0.80;;;;;;;9.28;63.51;101196.47;5061675;28;20288;-80
2023/04/17 03:27:15;;;;;;;3.55;1.10;;;;;;;9.26;64.30;101198.09;5057092;28;20132;-77
2023/04/17 03:29:44;;;;;;;6.13;1.10;;;;;;;9.24;63.91;101197.13;5059019;28;20064;-79
2023/04/17 03:32:13;;;;;;;4.78;0.57;;;;;;;9.18;65.17;101186.53;5061513;28;20404;-75
2023/04/17 03:34:41;;;;;;;5.13;0.65;;;;;;;9.06;65.69;101176.59;5055879;28;20486;-79
2023/04/17 03:37:10;;;;;;;5.75;1.17;;;;;;;9.17;64.96;101188.25;5059338;28;20048;-77
2023/04/17 03:39:39;;;;;;;2.17;0.68;;;;;;;9.14;65.82;101192.38;5064499;28;20557;-77
2023/04/17 03:42:13;;;;;;;3.03;1.15;;;;;;;9.10;66.19;101193.09;5052256;28;20600;-79
2023/04/17 03:44:42;;;;;;;5.05;1.52;;;;;;;9.05;66.57;101194.56;5056268;28;20537;-79
2023/04/17 03:47:11;;;;;;;3.65;1.38;;;;;;;9.00;66.56;101195.28;5066218;28;20108;-80
2023/04/17 03:49:40;;;;;;;4.85;2.10;;;;;;;8.94;66.99;101205.34;5052220;28;20462;-82
2023/04/17 03:52:09;;;;;;;6.28;1.35;;;;;;;8.91;68.80;101200.06;5047196;28;20064;-79
2023/04/17 03:54:37;;;;;;;2.80;0.70;;;;;;;8.85;67.79;101202.38;5038364;28;20049;-78
2023/04/17 03:57:08;;;;;;;6.30;0.70;;;;;;;8.79;68.29;101199.50;5043419;28;20635;-80
2023/04/17 03:59:36;;;;;;;6.30;0.75;;;;;;;8.75;69.58;101211.41;5048392;28;20148;-80
2023/04/17 04:02:05;;;;;;;3.70;0.70;;;;;;;8.70;70.95;101212.00;5050142;28;20512;-81
2023/04/17 04:04:34;;;;;;;2.58;0.68;;;;;;;8.63;75.79;101209.97;5046686;28;20053;-82
2023/04/17 04:07:03;;;;;;;2.40;0.73;;;;;;;8.54;75.35;101220.75;5042339;28;20413;-77
2023/04/17 04:09:32;;;;;;;1.40;0.85;;;;;;;8.43;74.85;101216.81;5048541;28;20076;-78
2023/04/17 04:12:00;;;;;;;5.60;0.60;;;;;;;8.38;75.43;101211.41;5045631;28;20048;-78
2023/04/17 04:14:31;;;;;;;13.30;0.93;;;;;;;8.34;76.16;101209.53;5047968;28;20068;-76
2023/04/17 04:16:59;;;;;;;1.45;0.73;;;;;;;8.31;76.07;101219.66;5046981;28;20102;-78
2023/04/17 04:19:28;;;;;;;3.05;0.77;;;;;;;8.30;74.49;101210.19;5043677;28;20068;-78
2023/04/17 04:21:57;;;;;;;6.65;1.08;;;;;;;8.33;74.86;101210.31;5050538;28;20070;-75
2023/04/17 04:24:26;;;;;;;3.67;0.63;;;;;;;8.38;77.10;101208.81;5044060;28;20116;-77
2023/04/17 04:27:01;;;;;;;4.88;0.70;;;;;;;8.41;75.18;101214.16;5035494;28;20050;-76
2023/04/17 04:29:31;;;;;;;2.40;0.98;;;;;;;8.43;73.29;101228.03;5046761;28;20057;-79
2023/04/17 04:32:01;;;;;;;2.38;0.45;;;;;;;8.44;73.43;101216.88;5051582;28;20045;-77
2023/04/17 04:34:30;;;;;;;5.45;0.65;;;;;;;8.43;72.21;101222.88;5043943;28;20049;-79
2023/04/17 04:36:58;;;;;;;3.88;0.60;;;;;;;8.39;69.09;101220.91;5040335;28;20056;-78
2023/04/17 04:39:28;;;;;;;4.00;0.80;;;;;;;8.29;66.03;101218.72;5043583;28;20629;-77
2023/04/17 04:42:04;;;;;;;5.05;0.73;;;;;;;8.36;66.21;101231.06;5046898;28;20570;-76
2023/04/17 04:44:34;;;;;;;2.78;0.88;;;;;;;8.37;66.74;101231.16;5043727;28;20049;-79
2023/04/17 04:47:03;;;;;;;2.53;0.68;;;;;;;8.34;65.26;101217.25;5048483;28;20486;-78
2023/04/17 04:49:32;;;;;;;5.22;0.73;;;;;;;8.39;66.09;101226.06;5039343;28;20050;-77
2023/04/17 04:52:01;;;;;;;1.95;0.57;;;;;;;8.43;71.20;101228.03;5015688;28;20052;-74
2023/04/17 04:54:29;;;;;;;1.67;0.50;;;;;;;8.43;74.19;101225.44;5035352;28;20517;-75
2023/04/17 04:56:58;;;;;;;2.63;0.70;;;;;;;8.40;73.15;101227.84;5027390;28;20906;-81
2023/04/17 04:59:27;;;;;;;1.52;0.82;;;;;;;8.40;72.71;101222.69;5017941;28;20505;-79
2023/04/17 05:01:57;;;;;;;2.58;0.70;;;;;;;8.38;72.63;101222.63;5018349;28;20132;-73
2023/04/17 05:04:26;;;;;;;1.15;0.45;;;;;;;8.37;70.71;101213.09;5028099;28;20458;-77
2023/04/17 05:06:55;;;;;;;2.05;0.30;;;;;;;8.33;72.78;101211.19;5018804;28;20077;-77
2023/04/17 05:09:25;;;;;;;1.20;0.40;;;;;;;8.28;76.24;101206.66;5024093;28;20156;-78
2023/04/17 05:11:54;;;;;;;1.55;0.50;;;;;;;8.26;74.09;101218.59;5016973;28;20052;-78
2023/04/17 05:14:23;;;;;;;0.68;0.30;;;;;;;8.19;68.83;101207.97;5018160;28;20057;-79
2023/04/17 05:16:53;;;;;;;4.18;1.02;;;;;;;8.18;70.84;101208.81;5020946;28;20649;-78
2023/04/17 05:19:23;;;;;;;0.68;0.40;;;;;;;8.17;74.39;101213.88;5022265;28;20771;-78
2023/04/17 05:21:52;;;;;;;3.35;0.60;;;;;;;8.14;70.87;101204.31;5019460;28;20684;-79
2023/04/17 05:24:21;;;;;;;7.18;0.82;;;;;;;8.13;72.66;101194.81;5020856;28;20463;-77
2023/04/17 05:26:50;;;;;;;3.25;1.05;;;;;;;8.11;72.56;101186.13;5025727;28;20053;-77
2023/04/17 05:29:19;;;;;;;3.47;0.85;;;;;;;8.06;71.05;101185.00;5021804;28;20523;-77
2023/04/17 05:31:47;;;;;;;3.05;0.55;;;;;;;8.04;71.18;101183.19;5022512;28;20049;-78
2023/04/17 05:34:16;;;;;;;3.65;0.98;;;;;;;8.02;70.57;101183.13;5018598;28;20056;-78
2023/04/17 05:36:46;;;;;;;3.22;0.57;;;;;;;8.02;70.28;101177.06;5017264;28;20058;-79
2023/04/17 05:39:15;;;;;;;1.35;0.65;;;;;;;7.98;71.58;101168.34;5023915;28;20045;-78
2023/04/17 05:41:44;;;;;;;3.55;0.70;;;;;;;8.00;71.88;101169.28;5022781;28;20053;-76
2023/04/17 05:44:13;;;;;;;4.63;0.80;;;;;;;7.98;71.98;101164.06;5025324;28;20049;-78
2023/04/17 05:46:41;;;;;;;5.50;0.82;;;;;;;7.96;73.25;101152.78;5016265;28;20085;-76
2023/04/17 05:49:10;;;;;;;1.48;0.50;;;;;;;8.01;72.31;101154.72;5033378;28;20067;-78
2023/04/17 05:51:39;;;;;;;0.50;0.45;;;;;;;8.01;72.55;101149.56;5062887;28;20044;-77
2023/04/17 05:54:09;;;;;;;7.00;1.23;;;;;;;8.03;72.65;101155.66;5067186;28;20068;-77
2023/04/17 05:56:38;;;;;;;9.27;1.88;;;;;;;8.04;72.24;101150.59;5064379;28;20041;-77
2023/04/17 05:59:07;;;;;;;6.43;0.60;;;;;;;8.03;72.20;101147.94;5060788;28;20658;-77
2023/04/17 06:01:36;;;;;;;5.57;0.70;;;;;;;8.02;72.24;101141.91;5063779;28;20494;-78
2023/04/17 06:04:04;;;;;;;6.15;1.42;;;;;;;8.03;72.74;101137.63;5066527;28;20060;-77
2023/04/17 06:06:33;;;;;;;1.20;0.60;;;;;;;8.04;72.34;101144.53;5063542;28;20464;-76
2023/04/17 06:09:02;;;;;;;5.57;1.00;;;;;;;8.01;72.85;101142.69;5060239;28;20098;-77
2023/04/17 06:11:32;;;;;;;3.58;0.68;;;;;;;8.00;72.53;101137.50;5059777;28;20144;-77
2023/04/17 06:14:00;;;;;;;2.75;1.00;;;;;;;7.95;73.42;101135.59;5059469;28;20482;-77
2023/04/17 06:16:29;;;;;;;4.38;0.70;;;;;;;7.95;74.87;101137.28;5062419;28;20059;-77
2023/04/17 06:18:58;;;;;;;1.85;0.80;;;;;;;7.97;74.40;101136.53;5063615;28;20050;-78
2023/04/17 06:21:27;;;;;;;2.30;1.23;;;;;;;7.97;74.19;101127.91;5065985;28;20694;-78
2023/04/17 06:23:56;;;;;;;4.07;1.17;;;;;;;7.97;75.33;101130.47;5058788;28;20493;-78
2023/04/17 06:26:24;;;;;;;3.42;0.40;;;;;;;7.97;75.59;101127.91;5060700;28;20052;-78
2023/04/17 06:28:55;;;;;;;10.75;0.80;;;;;;;7.98;74.97;101129.69;5065608;28;20075;-77
2023/04/17 06:31:24;;;;;;;4.40;0.65;;;;;;;7.97;76.70;101120.16;5059252;28;20569;-77
2023/04/17 06:33:52;;;;;;;6.43;1.20;;;;;;;7.95;76.49;101111.53;5059416;28;20145;-77
2023/04/17 06:36:21;;;;;;;3.88;0.73;;;;;;;7.96;75.99;101110.69;5060798;28;20049;-77
2023/04/17 06:38:50;;;;;;;1.95;0.80;;;;;;;7.97;76.96;101103.03;5062111;28;20131;-77
2023/04/17 06:41:18;;;;;;;3.67;1.30;;;;;;;7.95;75.66;101112.41;5062474;28;20044;-77
2023/04/17 06:43:47;;;;;;;2.88;0.98;;;;;;;7.97;75.04;101096.97;5064779;28;20047;-77
2023/04/17 06:46:17;;;;;;;8.88;0.95;;;;;;;7.97;74.83;101102.13;5065241;28;20083;-76
2023/04/17 06:48:46;;;;;;;9.65;0.90;;;;;;;7.99;75.80;101090.19;5057014;28;20081;-76
2023/04/17 06:51:16;;;;;;;5.20;0.85;;;;;;;7.98;75.26;101089.31;5042910;28;20056;-77
2023/04/17 06:53:45;;;;;;;6.43;1.00;;;;;;;7.99;75.84;101077.31;5035380;28;20076;-77
2023/04/17 06:56:14;;;;;;;8.32;1.42;;;;;;;7.99;76.07;101082.47;5042102;28;20060;-77
2023/04/17 06:58:44;;;;;;;8.95;1.10;;;;;;;7.98;75.76;101083.31;5039386;28;20604;-78
2023/04/17 07:01:13;;;;;;;2.95;0.82;;;;;;;7.94;76.32;101078.81;5038824;28;20037;-78
2023/04/17 07:03:44;;;;;;;2.90;0.95;;;;;;;7.91;76.66;101076.97;5037913;28;20049;-77
2023/04/17 07:06:13;;;;;;;5.65;0.70;;;;;;;7.91;78.26;101076.09;5042386;28;20128;-77
2023/04/17 07:08:41;;;;;;;1.67;0.90;;;;;;;7.90;77.60;101077.81;5046170;28;20049;-77
2023/04/17 07:11:10;;;;;;;5.07;1.50;;;;;;;7.92;77.95;101068.44;5046594;28;20079;-77
2023/04/17 07:13:39;;;;;;;2.83;0.80;;;;;;;7.91;76.86;101069.25;5033624;28;20544;-76
2023/04/17 07:16:08;;;;;;;4.35;1.35;;;;;;;7.89;77.32;101068.31;5041702;28;20051;-77
2023/04/17 07:18:37;;;;;;;2.95;0.75;;;;;;;7.86;77.29;101067.31;5040739;28;20049;-78
2023/04/17 07:21:07;;;;;;;4.00;0.85;;;;;;;7.84;77.49;101063.78;5037373;28;20076;-76
2023/04/17 07:23:44;;;;;;;0.57;0.47;;;;;;;7.81;77.27;101064.50;5043025;28;20417;-77
2023/04/17 07:26:13;;;;;;;2.55;0.50;;;;;;;7.80;77.76;101064.44;5045464;28;20103;-76
2023/04/17 07:28:41;;;;;;;5.03;1.48;;;;;;;7.76;77.90;101055.66;5041076;28;20059;-77
2023/04/17 07:31:10;;;;;;;12.60;1.63;;;;;;;7.73;78.99;101061.56;5039475;28;20053;-78
2023/04/17 07:33:39;;;;;;;1.73;1.05;;;;;;;7.69;78.25;101059.66;5044657;28;20513;-77
2023/04/17 07:36:12;;;;;;;3.45;1.10;;;;;;;7.66;79.23;101059.53;5048005;28;20040;-77
2023/04/17 07:38:41;;;;;;;6.72;0.93;;;;;;;7.62;79.12;101051.59;5048004;28;20063;-78
2023/04/17 07:41:11;;;;;;;2.25;0.70;;;;;;;7.61;79.88;101058.44;5048169;28;20081;-77
2023/04/17 07:43:40;;;;;;;4.35;0.70;;;;;;;7.60;80.72;101050.63;5046962;28;20057;-78
2023/04/17 07:46:08;;;;;;;3.58;0.70;;;;;;;7.58;80.96;101047.97;5047931;28;20053;-77
2023/04/17 07:48:37;;;;;;;1.27;0.52;;;;;;;7.57;81.47;101056.53;5049523;28;20118;-77
2023/04/17 07:51:06;;;;;;;3.75;0.82;;;;;;;7.59;81.00;101049.75;5045415;28;20049;-78
2023/04/17 07:53:37;;;;;;;2.63;0.77;;;;;;;7.59;80.53;101047.19;5043835;28;20080;-77
2023/04/17 07:56:06;;;;;;;7.70;1.13;;;;;;;7.60;80.87;101043.78;5044824;28;20053;-77
2023/04/17 07:58:37;;;;;;;2.78;1.17;;;;;;;7.60;81.00;101041.19;5044909;28;20540;-77
2023/04/17 08:01:05;;;;;;;4.93;0.90;;;;;;;7.54;81.63;101038.38;5045217;28;20494;-76
2023/04/17 08:03:34;;;;;;;8.23;0.90;;;;;;;7.53;80.92;101036.59;5040198;28;20507;-76
2023/04/17 08:06:03;;;;;;;2.75;0.88;;;;;;;7.54;80.61;101039.25;5064286;28;20050;-76
2023/04/17 08:08:32;;;;;;;4.55;0.80;;;;;;;7.55;80.82;101027.25;5060856;28;20526;-76
2023/04/17 08:11:02;;;;;;;1.35;0.50;;;;;;;7.55;81.00;101027.25;5058095;28;20056;-76
2023/04/17 08:13:32;;;;;;;2.20;0.80;;;;;;;7.55;80.23;101022.97;5063813;28;20052;-77
2023/04/17 08:16:00;;;;;;;10.63;1.10;;;;;;;7.53;80.56;101021.13;5066307;28;20135;-76
2023/04/17 08:18:31;;;;;;;1.27;0.80;;;;;;;7.50;81.21;101016.72;5059907;28;20077;-77
2023/04/17 08:21:00;;;;;;;2.28;0.80;;;;;;;7.45;81.46;101009.63;5062752;28;20068;-77
2023/04/17 08:23:28;;;;;;;1.70;0.55;;;;;;;7.41;81.08;101007.72;5067879;28;20048;-78
2023/04/17 08:25:57;;;;;;;2.17;1.00;;;;;;;7.36;81.32;100998.91;5068430;28;20472;-77
2023/04/17 08:28:28;;;;;;;4.82;0.77;;;;;;;7.32;83.14;100998.75;5063903;28;20049;-76
2023/04/17 08:30:56;;;;;;;3.60;1.15;;;;;;;7.29;84.11;100998.59;5064401;28;20103;-76
2023/04/17 08:33:25;;;;;;;3.90;0.90;;;;;;;7.24;84.41;100994.94;5064575;28;20495;-76
2023/04/17 08:35:54;;;;;;;5.80;0.93;;;;;;;7.20;84.75;100989.59;5056912;28;20041;-77
2023/04/17 08:38:23;;;;;;;7.95;0.80;;;;;;;7.17;84.38;100990.31;5065012;28;20060;-77
2023/04/17 08:40:54;;;;;;;1.40;0.80;;;;;;;7.19;85.81;100990.38;5059787;28;20048;-77
2023/04/17 08:43:26;;;;;;;12.25;1.13;;;;;;;7.20;86.47;100987.88;5066018;28;20049;-78
2023/04/17 08:45:57;;;;;;;4.90;0.88;;;;;;;7.21;86.43;100979.34;5061247;28;20495;-77
2023/04/17 08:48:26;;;;;;;1.85;0.88;;;;;;;7.23;86.31;100975.16;5064799;28;20044;-77
2023/04/17 08:50:55;;;;;;;3.45;1.30;;;;;;;7.24;84.88;100970.88;5013629;28;20054;-77
2023/04/17 08:53:24;;;;;;;3.00;1.30;;;;;;;7.24;84.77;100971.78;5021547;28;20144;-76
2023/04/17 08:55:52;;;;;;;5.65;0.90;;;;;;;7.23;84.82;100959.72;5013565;28;20053;-77
2023/04/17 08:58:24;;;;;;;4.25;0.88;;;;;;;7.21;85.50;100961.31;5016449;28;20715;-77
2023/04/17 09:00:53;;;;;;;1.85;0.82;;;;;;;7.17;85.64;100959.44;5020943;28;20070;-77
2023/04/17 09:03:23;;;;;;;6.40;0.90;;;;;;;7.15;86.24;100950.78;5023479;28;20559;-75
2023/04/17 09:05:58;;;;;;;3.50;0.70;;;;;;;7.14;85.69;100942.13;5021346;28;20120;-76
2023/04/17 09:08:28;;;;;;;2.28;0.75;;;;;;;7.16;85.75;100946.50;5025452;28;20065;-76
2023/04/17 09:10:56;;;;;;;4.70;0.85;;;;;;;7.12;84.92;100938.66;5019751;28;20053;-74
2023/04/17 09:13:28;;;;;;;0.75;0.50;;;;;;;7.11;84.80;100933.41;5020461;28;20491;-75
2023/04/17 09:16:06;;;;;;;2.35;0.50;;;;;;;7.09;85.02;100925.63;5020983;28;20049;-75
2023/04/17 09:18:37;;;;;;;4.43;0.63;;;;;;;7.08;84.57;100923.00;5022624;28;20577;-75
2023/04/17 09:21:07;;;;;;;1.45;0.52;;;;;;;7.07;85.17;100918.63;5022954;28;20286;-76
2023/04/17 09:23:49;;;;;;;3.40;0.70;;;;;;;7.06;84.51;100920.34;5026313;28;20532;-75
2023/04/17 09:26:18;;;;;;;4.05;0.55;;;;;;;7.04;85.02;100918.50;5020286;28;20097;-75
2023/04/17 09:29:12;;;;;;;2.03;0.95;;;;;;;7.01;84.77;100910.63;5019188;28;20072;-76
2023/04/17 09:31:42;;;;;;;2.33;0.68;;;;;;;7.00;85.75;100914.03;5001078;28;20487;-76
2023/04/17 09:34:15;;;;;;;1.40;0.73;;;;;;;7.00;85.32;100914.03;5020765;28;20462;-75
2023/04/17 09:36:44;;;;;;;4.57;0.75;;;;;;;6.97;85.52;100904.47;5025377;28;20111;-75
2023/04/17 09:39:19;;;;;;;1.25;1.02;;;;;;;6.96;85.77;100907.84;5021050;28;20046;-76
2023/04/17 09:41:48;;;;;;;2.65;0.57;;;;;;;6.95;85.64;100900.06;5027306;28;20124;-75
2023/04/17 09:44:27;;;;;;;2.20;0.70;;;;;;;6.92;85.54;100896.56;5023684;28;20755;-75
2023/04/17 09:46:56;;;;;;;3.30;0.60;;;;;;;6.90;86.06;100900.75;5018704;28;20559;-75
2023/04/17 09:49:34;;;;;;;2.88;0.88;;;;;;;6.87;86.31;100892.88;5031629;28;20056;-75
2023/04/17 09:52:03;;;;;;;2.60;0.82;;;;;;;6.86;86.42;100891.09;5043103;28;20674;-75
2023/04/17 09:54:36;;;;;;;2.22;0.80;;;;;;;6.84;86.44;100887.59;5046658;28;20084;-75
2023/04/17 09:57:13;;;;;;;0.68;0.52;;;;;;;6.81;87.16;100881.44;5039709;28;20067;-75
2023/04/17 09:59:44;;;;;;;5.95;0.98;;;;;;;6.80;87.10;100889.94;5042448;28;20040;-76
2023/04/17 10:02:14;;;;;;;2.42;1.08;;;;;;;6.78;87.82;100877.03;5045117;28;20084;-75
2023/04/17 10:04:46;;;;;;;4.45;0.90;;;;;;;6.76;87.96;100873.50;5037078;28;20049;-75
2023/04/17 10:07:15;;;;;;;2.08;0.70;;;;;;;6.74;87.88;100874.25;5037426;28;20072;-75
2023/04/17 10:09:45;;;;;;;3.97;0.70;;;;;;;6.71;87.68;100867.25;5045255;28;20072;-76
2023/04/17 10:12:16;;;;;;;3.70;0.77;;;;;;;6.71;87.49;100864.66;5045317;28;20099;-77
2023/04/17 10:14:47;;;;;;;4.07;1.08;;;;;;;6.69;87.43;100866.31;5043106;28;20678;-75
2023/04/17 10:17:27;;;;;;;3.97;1.13;;;;;;;6.65;90.01;100855.00;5035694;28;20075;-76
2023/04/17 10:20:05;;;;;;;5.57;0.95;;;;;;;6.65;90.78;100862.72;5038720;28;20037;-75
2023/04/17 10:22:39;;;;;;;0.88;0.52;;;;;;;6.66;90.40;100855.88;5039331;28;20172;-75
2023/04/17 10:25:25;;;;;;;1.20;0.93;;;;;;;6.60;90.58;100842.75;5042105;28;20044;-75
2023/04/17 10:27:58;;;;;;;2.17;0.65;;;;;;;6.64;91.66;100852.34;5035230;28;20053;-76
2023/04/17 10:30:52;;;;;;;1.55;0.85;;;;;;;6.60;93.35;100847.88;5039173;28;20131;-76
2023/04/17 10:33:26;;;;;;;0.77;0.50;;;;;;;6.53;93.35;100848.38;5043122;28;20881;-76
2023/04/17 10:35:56;;;;;;;2.67;0.60;;;;;;;6.47;92.81;100839.56;5038892;28;20052;-75
2023/04/17 10:38:44;;;;;;;2.63;0.50;;;;;;;6.42;92.22;100838.50;5039183;28;20048;-76
2023/04/17 10:41:13;;;;;;;0.25;0.20;;;;;;;6.39;91.35;100834.88;5048920;28;20041;-76
2023/04/17 10:43:45;;;;;;;2.53;1.23;;;;;;;6.39;91.16;100829.72;5043996;28;20049;-76
2023/04/17 10:46:14;;;;;;;3.90;0.57;;;;;;;6.38;91.05;100828.88;5041248;28;20057;-76
2023/04/17 10:48:51;;;;;;;4.30;1.00;;;;;;;6.37;91.53;100821.97;5037496;28;20056;-76
2023/04/17 10:51:42;;;;;;;1.95;0.52;;;;;;;6.39;91.07;100822.03;5020462;28;20049;-76
2023/04/17 10:54:14;;;;;;;1.50;0.50;;;;;;;6.41;90.00;100816.16;5009000;28;20041;-77
2023/04/17 10:56:44;;;;;;;3.53;0.57;;;;;;;6.42;90.24;100814.47;5024672;28;20099;-76
2023/04/17 10:59:14;;;;;;;1.05;0.50;;;;;;;6.49;90.19;100811.38;5031070;28;20045;-78
2023/04/17 11:01:59;;;;;;;2.38;0.70;;;;;;;6.51;90.08;100814.91;5029459;28;20096;-77
2023/04/17 11:04:30;;;;;;;0.73;0.30;;;;;;;6.55;90.98;100810.78;5030934;28;20057;-77
2023/04/17 11:07:01;;;;;;;0.75;0.32;;;;;;;6.57;93.47;100804.88;5023284;28;20081;-77
2023/04/17 11:09:30;;;;;;;3.05;0.65;;;;;;;6.60;94.68;100804.19;5023374;28;20550;-76
2023/04/17 11:12:02;;;;;;;2.50;0.45;;;;;;;6.61;96.14;100793.06;5025651;28;20602;-77
2023/04/17 11:14:31;;;;;;;6.53;0.40;;;;;;;6.63;96.85;100784.63;5021850;28;20687;-77
2023/04/17 11:16:59;;;;;;;1.67;0.50;;;;;;;6.65;96.45;100789.84;5031841;28;21404;-76
2023/04/17 11:19:28;;;;;;;2.83;0.57;;;;;;;6.65;95.00;100777.84;5026869;28;20045;-77
2023/04/17 11:22:00;;;;;;;3.60;0.60;;;;;;;6.67;94.52;100780.50;5028847;28;20514;-77
2023/04/17 11:24:30;;;;;;;1.77;0.63;;;;;;;6.67;94.40;100767.66;5025369;28;20587;-76
2023/04/17 11:27:00;;;;;;;0.75;0.30;;;;;;;6.67;93.80;100775.38;5019732;28;20052;-76
2023/04/17 11:29:28;;;;;;;0.65;0.32;;;;;;;6.61;95.08;100767.38;5033294;28;20115;-76
2023/04/17 11:31:59;;;;;;;1.30;0.40;;;;;;;6.60;95.63;100760.47;5026196;28;20042;-77
2023/04/17 11:34:28;;;;;;;2.17;0.40;;;;;;;6.60;95.68;100757.91;5030853;28;20503;-77
2023/04/17 11:36:59;;;;;;;1.42;0.82;;;;;;;6.60;95.57;100757.91;5028835;28;20041;-77
2023/04/17 11:39:30;;;;;;;2.78;0.60;;;;;;;6.60;94.89;100753.63;5033578;28;20140;-77
2023/04/17 11:41:59;;;;;;;0.70;0.50;;;;;;;6.57;95.42;100750.03;5034779;28;20045;-76
2023/04/17 11:44:29;;;;;;;3.25;0.82;;;;;;;6.56;95.00;100746.59;5025355;28;20344;-78
2023/04/17 11:46:59;;;;;;;2.75;0.50;;;;;;;6.48;95.45;100728.25;5030989;28;20176;-77
2023/04/17 11:49:28;;;;;;;2.03;0.70;;;;;;;6.49;94.20;100731.69;5034119;27;20519;-77